LiveATC.Net - Listen to live air traffic control over the Internet!


ICAO: ESSL  IATA: LPI   Airport: Linkoping City (Saab) Airport
City: Linkoping
Country: Sweden   Continent: Europe
ESSL METAR Weather: ESSL 150520Z AUTO 14003KT 9999 FEW005/// OVC016/// 10/09 Q1002
ESSL Flight Activity (FlightAware)

ESSL Twr/App/Control
Feed Status: UP   Listeners: 0
Listen in your browser - HTML5 player (in browser, HTML5)
Click here to listen with your own player (launches your MP3 player)
Archive Access: ESSL Twr/App/Control
FacilityFrequency
Emergency/Guard121.500
Linkoping Tower118.800
Linkoping Tower (Secondary)123.400
Ostgota Control126.400
Ostgota Control127.350
Ostgota Control128.700
Ostgota Control132.950
Ostgota Control135.850
Ostgota Control (Malmen Sector)133.100
Ostgota Control/Sweden Control118.400

NOTICE

Unauthorized use prohibited. See LiveATC.net Terms of Service


Airport/ARTCC Code
Frequency Search
(e.g., 124.400, 128.75)
Site-wide search
 


Browse Feeds
Top 50 Feeds
HF Oceanic Feeds
Coverage Map
Bad Weather Areas

LiveATC FAQ
Offer LiveATC feed
Contact LiveATC.net
Press Inquiries

LiveATC on iPhone
LiveATC on Android

Windows Phone
Windows 8/10

LiveATC Mobile
(Mobile browser)

ATC Audio Archives
Interesting Recordings

LiveATC Forums


Home Page
About LiveATC.net
Make a Donation
Terms of Use
Privacy Policy

Canadian Air Freqs

AIRMETs/SIGMETs

FAA Airport Status
NAS Status
Arrival Demand


Server Software By:
Icecast.org
Liquidsoap